Main page
METAR-TAF:

METAR-TAF

Airports :

Pian Rosa, Italy

latitude: 45-56N, longitude: 007-42E, elevation: 3480 m

Current weather observation

The report was made 48 minutes ago, at 11:55 UTC
Wind 18 kt from the Southwest with gusts up to 29 kt, varying between South/Southeast and West/Northwest
Temperature 1°C
Humidity 86%
Pressure 1028 hPa

METAR: LIMH 171155Z AUTO 22018G29KT 150V300 //// 01/M01 Q1028

Time: 14:43 (12:43 UTC)


TAF: missing

Weather observations and forecasts of more than 4000 airports (METAR and TAF reports).

The available stations are represented by yellow and red dots on the map.

Hover mouse over dot to see the name of the station.

Then click to see weather observations and forecasts.

To change the map : click on the green buttons with a black cross to zoom in, on the green button with a dash to zoom out, or on the green arrows for adjacent maps.


METAR-TAF: